Time;durP1;ratioP1;P1;durP2;ratioP2;P2;SDS_P1;SDS_P2;PMS_P1;PMS_P2;Temp;Humidity;BMP_temperature;BMP_pressure;BME280_temperature;BME280_humidity;BME280_pressure;Samples;Min_cycle;Max_cycle;Signal;HPM_P1;HPM_P2
2021/05/24 00:01:25;;;;;;;2.17;1.85;;;;;;;12.33;60.54;100116.28;10224953;28;22231;-58
2021/05/24 00:06:26;;;;;;;3.92;1.90;;;;;;;12.30;60.91;100111.22;10208963;28;20043;-56
2021/05/24 00:11:28;;;;;;;3.00;2.33;;;;;;;12.26;60.69;100117.81;10225108;28;20079;-56
2021/05/24 00:16:29;;;;;;;2.63;1.73;;;;;;;12.19;61.37;100106.03;10223989;28;20394;-55
2021/05/24 00:21:31;;;;;;;3.67;2.63;;;;;;;12.09;61.53;100102.50;10224561;28;20055;-57
2021/05/24 00:26:33;;;;;;;2.70;1.65;;;;;;;12.11;61.66;100100.50;10223863;28;20452;-57
2021/05/24 00:31:34;;;;;;;1.92;1.23;;;;;;;12.02;61.83;100087.03;10222137;28;20707;-54
2021/05/24 00:36:35;;;;;;;2.05;1.80;;;;;;;12.02;61.72;100087.03;10223617;28;20059;-54
2021/05/24 00:41:41;;;;;;;3.55;1.70;;;;;;;11.95;61.98;100096.56;10220823;28;20043;-56
2021/05/24 00:46:43;;;;;;;5.45;2.03;;;;;;;11.92;62.27;100086.13;10221681;28;20058;-57
2021/05/24 00:51:44;;;;;;;2.28;1.48;;;;;;;11.86;62.25;100078.69;10222678;28;20121;-55
2021/05/24 00:56:46;;;;;;;3.05;1.80;;;;;;;11.80;62.23;100088.06;10222665;28;20063;-56
2021/05/24 01:01:48;;;;;;;2.50;1.80;;;;;;;11.65;62.82;100062.75;10221927;28;20055;-53
2021/05/24 01:06:50;;;;;;;3.42;1.42;;;;;;;11.67;62.84;100072.28;10222806;28;20111;-55
2021/05/24 01:11:52;;;;;;;4.70;2.22;;;;;;;11.60;62.89;100064.97;10220966;28;20461;-57
2021/05/24 01:16:54;;;;;;;3.00;1.98;;;;;;;11.54;63.11;100063.66;10221520;28;20043;-56
2021/05/24 01:21:56;;;;;;;3.78;1.85;;;;;;;11.54;63.77;100060.16;10221914;28;21762;-55
2021/05/24 01:26:57;;;;;;;4.45;2.55;;;;;;;11.47;63.62;100054.53;10220702;28;20094;-56
2021/05/24 01:31:59;;;;;;;2.60;2.03;;;;;;;11.37;63.98;100037.66;10220624;28;20078;-53
2021/05/24 01:37:01;;;;;;;2.65;2.20;;;;;;;11.35;63.93;100044.94;10220506;28;20047;-56
2021/05/24 01:42:03;;;;;;;3.30;2.15;;;;;;;11.32;64.14;100043.41;10200859;28;20468;-56
2021/05/24 01:47:07;;;;;;;2.83;1.98;;;;;;;11.22;63.97;100040.69;10220356;28;20404;-56
2021/05/24 01:52:08;;;;;;;2.50;1.63;;;;;;;11.17;64.56;100053.56;10216869;28;20043;-58
2021/05/24 01:57:10;;;;;;;3.95;2.00;;;;;;;11.12;64.61;100039.78;10219859;28;20126;-55
2021/05/24 02:02:12;;;;;;;2.45;1.63;;;;;;;11.11;64.71;100046.09;10217430;28;20137;-56
2021/05/24 02:07:13;;;;;;;2.13;1.80;;;;;;;11.07;64.88;100048.16;10218967;28;20115;-54
2021/05/24 02:12:15;;;;;;;3.15;2.03;;;;;;;11.02;65.22;100028.22;10216853;28;20127;-56
2021/05/24 02:17:16;;;;;;;2.10;1.42;;;;;;;11.00;65.20;100023.03;10205163;28;20075;-54
2021/05/24 02:22:18;;;;;;;2.47;1.52;;;;;;;11.00;65.29;100016.88;10218288;28;20721;-59
2021/05/24 02:27:19;;;;;;;3.65;1.50;;;;;;;10.95;65.25;100006.63;10213136;28;20051;-56
2021/05/24 02:32:21;;;;;;;4.40;1.67;;;;;;;10.89;65.33;100001.81;10214608;28;20165;-55
2021/05/24 02:37:23;;;;;;;2.15;1.58;;;;;;;10.86;65.20;99997.59;10208331;28;20047;-54
2021/05/24 02:42:25;;;;;;;3.45;1.60;;;;;;;10.68;65.68;99969.91;10198586;28;20425;-57
2021/05/24 02:47:27;;;;;;;2.60;1.65;;;;;;;10.76;65.70;99986.03;10216723;28;20051;-55
2021/05/24 02:52:28;;;;;;;2.13;1.55;;;;;;;10.70;65.81;99984.75;10216913;28;20134;-56
2021/05/24 02:57:30;;;;;;;3.80;1.85;;;;;;;10.58;66.25;99965.34;10216653;28;20059;-55
2021/05/24 03:02:32;;;;;;;2.80;1.70;;;;;;;10.61;66.03;99970.41;10217121;28;20070;-56
2021/05/24 03:07:34;;;;;;;3.20;1.60;;;;;;;10.55;66.24;99978.94;10216580;28;20499;-54
2021/05/24 03:12:36;;;;;;;2.78;1.70;;;;;;;10.51;66.12;99974.84;10229680;28;20051;-55
2021/05/24 03:17:38;;;;;;;2.67;1.77;;;;;;;10.44;66.49;99973.66;10230706;28;20101;-56
2021/05/24 03:22:40;;;;;;;3.53;1.58;;;;;;;10.56;66.13;99977.94;10230364;28;20043;-54
2021/05/24 03:27:42;;;;;;;2.42;1.30;;;;;;;10.57;66.01;99974.31;10231011;28;20114;-57
2021/05/24 03:32:44;;;;;;;3.30;1.38;;;;;;;10.58;66.17;99976.00;10229055;28;20698;-55
2021/05/24 03:37:46;;;;;;;1.70;1.58;;;;;;;10.60;65.96;99970.56;10230428;28;20152;-56
2021/05/24 03:42:47;;;;;;;2.40;1.80;;;;;;;10.59;65.98;99972.34;10227640;28;20547;-55
2021/05/24 03:47:50;;;;;;;2.45;1.63;;;;;;;10.61;65.61;99964.22;10230007;28;20445;-57
2021/05/24 03:52:52;;;;;;;2.72;1.67;;;;;;;10.42;65.80;99935.69;10228906;28;20062;-57
2021/05/24 03:57:54;;;;;;;2.85;1.45;;;;;;;10.67;65.49;99958.38;10229586;28;20110;-55
2021/05/24 04:02:56;;;;;;;2.75;1.50;;;;;;;10.67;65.41;99976.19;10224276;28;20098;-55
2021/05/24 04:07:58;;;;;;;3.03;1.80;;;;;;;10.61;66.03;99957.13;10226887;28;20149;-56
2021/05/24 04:13:00;;;;;;;2.88;1.80;;;;;;;10.64;65.66;99963.13;10227509;28;20635;-54
2021/05/24 04:18:05;;;;;;;2.60;1.52;;;;;;;10.66;66.36;99956.72;10222821;28;20047;-54
2021/05/24 04:23:06;;;;;;;1.90;1.52;;;;;;;10.62;65.68;99952.63;10223402;28;20078;-54
2021/05/24 04:28:08;;;;;;;3.42;2.05;;;;;;;10.72;66.13;99953.53;10222002;28;20105;-52
2021/05/24 04:33:09;;;;;;;2.20;1.88;;;;;;;10.74;66.66;99953.38;10220993;28;20047;-53
2021/05/24 04:38:11;;;;;;;3.60;1.95;;;;;;;10.78;65.84;99946.84;10210710;28;20105;-54
2021/05/24 04:43:14;;;;;;;3.05;1.50;;;;;;;10.82;65.42;99937.59;10221147;28;20062;-53
2021/05/24 04:48:16;;;;;;;2.63;1.77;;;;;;;10.88;65.57;99931.72;10222097;28;20055;-55
2021/05/24 04:53:18;;;;;;;2.30;1.40;;;;;;;11.01;64.76;99928.84;10219628;28;20126;-55
2021/05/24 04:58:20;;;;;;;4.15;1.40;;;;;;;11.14;64.44;99933.94;10221482;28;20790;-54
2021/05/24 05:03:22;;;;;;;2.20;1.55;;;;;;;11.28;63.92;99922.91;10219490;28;20059;-56
2021/05/24 05:08:23;;;;;;;2.35;1.70;;;;;;;11.40;62.67;99915.63;10221179;28;20130;-54
2021/05/24 05:13:24;;;;;;;3.33;1.60;;;;;;;11.61;63.84;99925.38;10220062;28;20092;-54
2021/05/24 05:18:26;;;;;;;3.63;1.42;;;;;;;11.74;63.16;99922.41;10220492;28;20094;-55
2021/05/24 05:23:27;;;;;;;2.50;1.65;;;;;;;11.67;62.69;99898.97;10220495;28;20106;-54
2021/05/24 05:28:29;;;;;;;2.90;1.50;;;;;;;11.86;62.50;99910.66;10264671;23;20160;-62
2021/05/24 05:33:30;;;;;;;2.60;1.52;;;;;;;12.12;63.03;99936.78;10278399;28;20140;-63
2021/05/24 05:38:33;;;;;;;3.55;2.03;;;;;;;12.20;62.15;99912.91;10278415;28;20147;-67
2021/05/24 05:43:39;;;;;;;2.42;1.45;;;;;;;12.27;61.18;99919.34;10281774;28;20051;-64
2021/05/24 05:48:41;;;;;;;1.85;1.50;;;;;;;12.40;61.21;99902.19;10280528;28;20070;-63
2021/05/24 05:53:42;;;;;;;2.38;2.15;;;;;;;12.56;61.74;99910.44;10271340;28;20682;-66
2021/05/24 05:58:44;;;;;;;3.38;1.75;;;;;;;12.61;60.01;99908.19;10281366;28;20054;-64
2021/05/24 06:03:45;;;;;;;3.17;1.58;;;;;;;12.80;59.42;99898.41;10280448;28;20423;-64
2021/05/24 06:08:46;;;;;;;3.10;1.55;;;;;;;12.83;60.21;99893.63;10267199;28;20113;-64
2021/05/24 06:13:48;;;;;;;3.03;1.30;;;;;;;13.01;60.53;99884.81;10279656;28;20165;-62
2021/05/24 06:18:49;;;;;;;1.77;1.30;;;;;;;13.21;59.04;99896.25;10278637;28;20105;-63
2021/05/24 06:23:51;;;;;;;2.13;1.65;;;;;;;13.50;59.13;99869.38;10276867;28;21938;-63
2021/05/24 06:28:52;;;;;;;2.50;1.25;;;;;;;13.62;57.83;99872.66;10277280;28;20217;-68
2021/05/24 06:33:54;;;;;;;5.63;1.73;;;;;;;13.71;58.54;99871.75;10279586;28;20395;-64
2021/05/24 06:38:56;;;;;;;2.88;1.33;;;;;;;13.85;57.22;99861.50;10278689;28;20487;-62
2021/05/24 06:43:59;;;;;;;2.35;1.58;;;;;;;14.01;56.84;99866.97;10265326;28;20065;-63
2021/05/24 06:49:01;;;;;;;3.38;1.08;;;;;;;14.17;56.74;99868.09;10274254;28;20061;-63
2021/05/24 06:54:03;;;;;;;3.13;1.38;;;;;;;14.33;55.72;99849.47;10275207;28;20065;-62
2021/05/24 06:59:08;;;;;;;2.92;1.33;;;;;;;14.53;54.68;99849.25;10275447;28;20137;-63
2021/05/24 07:04:10;;;;;;;3.15;1.10;;;;;;;14.67;53.47;99856.72;10276214;28;20056;-64
2021/05/24 07:09:11;;;;;;;2.25;0.90;;;;;;;14.80;53.43;99856.28;10275064;28;20140;-63
2021/05/24 07:14:14;;;;;;;2.97;1.00;;;;;;;14.90;52.72;99840.09;10278603;28;20129;-64
2021/05/24 07:19:15;;;;;;;2.83;0.90;;;;;;;14.99;52.90;99841.78;10275560;28;20086;-65
2021/05/24 07:24:16;;;;;;;2.80;1.63;;;;;;;15.07;54.50;99860.56;10276827;28;20908;-64
2021/05/24 07:29:30;;;;;;;1.80;1.13;;;;;;;15.34;53.65;99858.63;10275839;28;20065;-60
2021/05/24 07:34:32;;;;;;;3.25;1.33;;;;;;;15.42;52.03;99850.63;10275548;28;20140;-59
2021/05/24 07:39:33;;;;;;;1.55;0.80;;;;;;;15.53;52.65;99844.91;10277109;28;20089;-59
2021/05/24 07:44:35;;;;;;;3.63;1.00;;;;;;;15.65;52.09;99847.28;10276487;28;20065;-63
2021/05/24 07:49:37;;;;;;;1.60;0.80;;;;;;;15.86;51.48;99831.56;10276372;28;20061;-63
2021/05/24 07:54:39;;;;;;;2.17;0.73;;;;;;;16.19;50.81;99831.53;10281503;28;20125;-63
2021/05/24 07:59:40;;;;;;;2.13;0.70;;;;;;;16.37;49.77;99834.00;10283241;28;20074;-65
2021/05/24 08:04:42;;;;;;;2.03;0.85;;;;;;;16.57;48.63;99834.47;10282501;28;20150;-63
2021/05/24 08:09:43;;;;;;;1.92;0.90;;;;;;;16.71;48.69;99835.59;10283047;28;20490;-64
2021/05/24 08:14:45;;;;;;;3.15;1.02;;;;;;;16.88;48.79;99820.25;10283553;28;20137;-63
2021/05/24 08:19:46;;;;;;;1.13;0.63;;;;;;;17.21;47.17;99820.09;10273679;28;20054;-64
2021/05/24 08:24:48;;;;;;;1.13;0.60;;;;;;;17.37;46.53;99816.47;10280492;28;20109;-63
2021/05/24 08:29:49;;;;;;;2.28;0.85;;;;;;;17.33;45.03;99827.78;10279511;28;20124;-63
2021/05/24 08:34:51;;;;;;;3.00;0.55;;;;;;;17.64;45.68;99823.16;10272497;28;20102;-62
2021/05/24 08:39:52;;;;;;;1.17;0.43;;;;;;;17.76;44.71;99828.97;10273514;28;20137;-62
2021/05/24 08:44:56;;;;;;;1.23;0.60;;;;;;;17.51;41.29;99817.53;10279109;28;20414;-63
2021/05/24 08:49:58;;;;;;;2.38;1.20;;;;;;;17.59;41.23;99812.09;10262689;28;20137;-62
2021/05/24 08:55:00;;;;;;;1.75;0.77;;;;;;;17.65;40.31;99814.09;10276114;28;20154;-62
2021/05/24 09:00:01;;;;;;;2.22;0.60;;;;;;;17.46;41.28;99790.34;10278410;28;20124;-65
2021/05/24 09:05:07;;;;;;;1.67;0.55;;;;;;;17.93;41.54;99797.38;10278337;28;20608;-65
2021/05/24 09:10:09;;;;;;;2.42;1.15;;;;;;;18.10;40.99;99786.44;10276950;28;20128;-65
2021/05/24 09:15:14;;;;;;;2.17;0.50;;;;;;;18.26;40.17;99780.88;10276293;28;20100;-65
2021/05/24 09:20:26;;;;;;;2.83;0.75;;;;;;;18.29;40.01;99758.13;10272355;28;20145;-62
2021/05/24 09:25:47;;;;;;;0.80;0.40;;;;;;;18.55;39.12;99761.19;10273539;28;20216;-65
2021/05/24 09:30:53;;;;;;;2.95;0.30;;;;;;;18.87;39.19;99750.16;10275114;28;20077;-64
2021/05/24 09:35:54;;;;;;;1.02;0.47;;;;;;;19.16;38.40;99737.63;10279467;28;20843;-64
2021/05/24 09:40:59;;;;;;;1.05;0.40;;;;;;;19.39;38.58;99735.56;10280037;28;20080;-64
2021/05/24 09:46:19;;;;;;;2.15;0.77;;;;;;;19.40;38.04;99712.94;10263690;28;20116;-65
2021/05/24 09:51:23;;;;;;;4.22;0.40;;;;;;;19.85;37.26;99709.19;10278601;28;20129;-62
2021/05/24 09:56:25;;;;;;;;;;;;;;;20.02;35.46;99694.31;10267500;28;20042;-62
2021/05/24 10:01:31;;;;;;;1.70;0.30;;;;;;;20.43;35.33;99677.28;10278199;28;20235;-65
2021/05/24 10:06:34;;;;;;;3.33;0.50;;;;;;;20.72;36.31;99674.50;10270345;28;20638;-65
2021/05/24 10:11:38;;;;;;;2.30;0.40;;;;;;;20.77;35.18;99662.00;10277670;28;20062;-71
2021/05/24 10:16:47;;;;;;;1.77;0.70;;;;;;;20.78;32.53;99654.75;10276806;28;20516;-63
2021/05/24 10:21:50;;;;;;;1.35;0.20;;;;;;;21.34;32.80;99640.00;10279762;28;20806;-66
2021/05/24 10:26:54;;;;;;;1.95;0.20;;;;;;;21.76;31.47;99634.34;10266995;28;20058;-64
2021/05/24 10:31:56;;;;;;;0.70;0.25;;;;;;;21.78;30.35;99619.53;10280105;28;20054;-67
2021/05/24 10:37:07;;;;;;;1.15;0.32;;;;;;;21.80;30.78;99631.00;10279245;28;20385;-63
2021/05/24 10:42:11;;;;;;;1.40;0.50;;;;;;;21.66;31.06;99613.13;10280307;28;21521;-64
2021/05/24 10:47:24;;;;;;;1.48;0.30;;;;;;;22.29;30.02;99606.22;10278843;28;20046;-64
2021/05/24 10:52:25;;;;;;;1.00;0.30;;;;;;;23.00;30.06;99601.63;10276217;28;20062;-65
2021/05/24 10:57:31;;;;;;;0.80;0.20;;;;;;;23.10;28.59;99607.44;10276098;28;20137;-65
2021/05/24 11:02:37;;;;;;;3.72;0.30;;;;;;;23.28;26.81;99580.34;10257263;28;20184;-63
2021/05/24 11:07:39;;;;;;;1.13;0.20;;;;;;;23.24;27.39;99576.41;10271525;28;20046;-65
2021/05/24 11:12:44;;;;;;;3.00;0.20;;;;;;;23.27;26.97;99569.72;10271406;28;20066;-65
2021/05/24 11:18:10;;;;;;;0.47;0.20;;;;;;;23.35;26.00;99566.69;10272237;28;20202;-63
2021/05/24 11:23:18;;;;;;;1.60;0.25;;;;;;;22.97;26.39;99559.50;10267169;28;20050;-65
2021/05/24 11:28:31;;;;;;;2.17;0.20;;;;;;;23.35;27.02;99566.69;10275719;23;20123;-61
2021/05/24 11:33:43;;;;;;;2.10;0.28;;;;;;;23.63;27.13;99552.59;10208600;28;20488;-59
2021/05/24 11:39:19;;;;;;;1.73;0.30;;;;;;;22.95;26.54;99551.59;10191978;28;20523;-69
2021/05/24 11:44:24;;;;;;;0.93;0.20;;;;;;;22.30;23.82;99527.41;10154475;28;20063;-61
2021/05/24 11:49:44;;;;;;;0.63;0.20;;;;;;;22.42;26.14;99522.97;10205374;28;20054;-65
2021/05/24 11:54:50;;;;;;;0.75;0.20;;;;;;;22.62;25.58;99515.75;10205766;28;20424;-64
2021/05/24 11:59:52;;;;;;;1.85;0.20;;;;;;;22.99;26.73;99510.44;10202414;28;20518;-60
2021/05/24 12:04:53;;;;;;;1.58;0.22;;;;;;;23.06;25.64;99508.47;10193071;28;20055;-61
2021/05/24 12:09:57;;;;;;;0.57;0.20;;;;;;;23.15;25.25;99507.19;10204370;28;20126;-64
2021/05/24 12:15:00;;;;;;;2.25;0.25;;;;;;;23.35;24.62;99506.97;10203367;28;20047;-65
2021/05/24 12:20:11;;;;;;;2.05;0.43;;;;;;;23.26;24.29;99497.44;10202471;28;22905;-67
2021/05/24 12:25:16;;;;;;;0.35;0.10;;;;;;;23.64;25.60;99493.66;10200985;28;20062;-64
2021/05/24 12:30:31;;;;;;;1.98;0.50;;;;;;;23.89;24.28;99493.59;10208324;28;20046;-69
2021/05/24 12:35:35;;;;;;;1.38;0.20;;;;;;;23.46;25.49;99491.78;10210899;28;20465;-63
2021/05/24 12:40:37;;;;;;;1.45;0.20;;;;;;;23.00;25.74;99483.06;10212093;28;20610;-65
2021/05/24 12:45:39;;;;;;;1.52;0.28;;;;;;;22.99;27.10;99475.16;10210309;28;20169;-65
2021/05/24 12:50:43;;;;;;;1.30;0.40;;;;;;;23.54;26.62;99472.50;10217696;28;20061;-62
2021/05/24 12:55:46;;;;;;;1.30;0.22;;;;;;;23.56;25.81;99481.22;10221570;28;20122;-59
2021/05/24 13:00:50;;;;;;;1.30;0.28;;;;;;;23.36;26.41;99480.63;10222852;28;20705;-63
2021/05/24 13:06:06;;;;;;;1.20;0.20;;;;;;;23.20;26.67;99477.47;10222241;28;20125;-64
2021/05/24 13:11:07;;;;;;;1.02;0.30;;;;;;;23.70;27.59;99462.03;10220233;28;20055;-63
2021/05/24 13:16:38;;;;;;;2.88;0.32;;;;;;;23.82;27.33;99461.06;10217172;28;20631;-59
2021/05/24 13:33:34;;;;;;;0.88;0.38;;;;;;;23.51;26.82;99445.78;10082848;29;20658;-68
2021/05/24 13:38:36;;;;;;;2.20;0.30;;;;;;;23.37;27.34;99444.28;10155758;29;20139;-63
2021/05/24 13:43:37;;;;;;;1.08;0.30;;;;;;;23.02;26.84;99431.28;10165100;29;20461;-62
2021/05/24 13:48:39;;;;;;;2.35;0.30;;;;;;;22.62;27.72;99434.38;10150080;29;20048;-62
2021/05/24 13:53:41;;;;;;;1.58;0.43;;;;;;;22.19;29.38;99435.97;10157295;29;20123;-67
2021/05/24 13:58:42;;;;;;;0.95;0.30;;;;;;;21.58;29.84;99434.66;10143955;29;20163;-63
2021/05/24 14:03:44;;;;;;;1.83;0.30;;;;;;;21.15;30.55;99439.56;10150765;29;20191;-67
2021/05/24 14:08:51;;;;;;;1.75;0.30;;;;;;;20.94;31.19;99439.81;10143826;29;20569;-63
2021/05/24 14:13:52;;;;;;;7.25;1.20;;;;;;;20.71;31.38;99453.78;10117332;29;20139;-64
2021/05/24 14:18:54;;;;;;;2.00;0.35;;;;;;;20.39;32.14;99443.56;10129676;29;20063;-61
2021/05/24 14:23:55;;;;;;;2.00;0.30;;;;;;;20.18;32.22;99454.59;10132418;29;20138;-65
2021/05/24 14:28:57;;;;;;;1.15;0.50;;;;;;;20.13;32.31;99456.03;10133768;28;20729;-62
2021/05/24 14:33:58;;;;;;;1.52;0.45;;;;;;;20.02;34.34;99463.88;10172595;28;20186;-62
2021/05/24 14:39:00;;;;;;;1.58;0.30;;;;;;;19.62;35.93;99488.84;10175768;28;20138;-61
2021/05/24 14:44:02;;;;;;;1.55;0.57;;;;;;;19.35;38.98;99523.81;10175564;28;20143;-65
2021/05/24 14:49:04;;;;;;;2.17;0.52;;;;;;;18.86;43.78;99544.44;10177166;28;20105;-61
2021/05/24 14:54:06;;;;;;;1.60;0.50;;;;;;;18.03;49.96;99552.09;10175398;28;20580;-64
2021/05/24 14:59:07;;;;;;;2.20;0.50;;;;;;;17.79;51.64;99585.47;10176162;28;20063;-61
2021/05/24 15:04:09;;;;;;;3.10;1.02;;;;;;;17.50;52.56;99584.47;10174849;28;20071;-59
2021/05/24 15:09:10;;;;;;;3.78;1.77;;;;;;;17.19;54.06;99600.75;10169437;28;20075;-66
2021/05/24 15:14:12;;;;;;;2.88;1.95;;;;;;;16.80;54.81;99597.22;10167350;28;21719;-67
2021/05/24 15:19:27;;;;;;;2.80;1.23;;;;;;;17.28;54.26;99616.66;10150048;28;20054;-67
2021/05/24 15:24:28;;;;;;;1.83;0.70;;;;;;;16.92;54.79;99616.47;10167735;28;20123;-64
2021/05/24 15:29:30;;;;;;;3.28;0.77;;;;;;;16.89;54.71;99616.81;10165255;28;20612;-64
2021/05/24 15:34:31;;;;;;;1.58;0.45;;;;;;;16.66;54.31;99614.91;10167405;28;20052;-66
2021/05/24 15:39:34;;;;;;;3.08;0.73;;;;;;;16.35;54.39;99639.13;10153491;28;20051;-60
2021/05/24 15:44:37;;;;;;;1.98;0.90;;;;;;;16.34;55.31;99610.63;10168068;28;20233;-67
2021/05/24 15:49:39;;;;;;;1.92;0.80;;;;;;;15.89;56.80;99604.94;10175028;28;20102;-60
2021/05/24 15:54:42;;;;;;;2.28;0.60;;;;;;;16.17;56.92;99616.06;10186631;28;20067;-67
2021/05/24 15:59:44;;;;;;;3.37;0.70;;;;;;;16.22;55.91;99607.47;10181356;28;20083;-61
2021/05/24 16:04:46;;;;;;;1.30;0.70;;;;;;;16.37;55.63;99599.50;10182149;28;20571;-64
2021/05/24 16:09:47;;;;;;;1.02;0.75;;;;;;;16.40;56.74;99591.94;10195709;28;20099;-65
2021/05/24 16:14:49;;;;;;;1.30;0.73;;;;;;;16.14;55.26;99602.13;10193568;28;20046;-66
2021/05/24 16:19:52;;;;;;;0.82;0.47;;;;;;;16.14;55.61;99596.78;10185914;28;20158;-60
2021/05/24 16:25:00;;;;;;;1.67;0.63;;;;;;;16.03;56.50;99596.19;10196017;28;20078;-64
2021/05/24 16:30:03;;;;;;;3.72;1.25;;;;;;;16.00;56.94;99601.03;10196276;28;20063;-65
2021/05/24 16:35:05;;;;;;;1.60;0.63;;;;;;;15.81;57.83;99603.13;10198416;28;22212;-59
2021/05/24 16:40:07;;;;;;;2.30;0.85;;;;;;;15.37;58.20;99592.81;10198376;28;20059;-57
2021/05/24 16:45:09;;;;;;;1.77;0.90;;;;;;;15.22;59.69;99594.53;10196452;28;20134;-55
2021/05/24 16:50:12;;;;;;;2.67;0.80;;;;;;;15.20;61.16;99600.88;10181463;28;20181;-56
2021/05/24 16:55:15;;;;;;;1.48;0.70;;;;;;;15.28;62.27;99591.16;10197941;28;20071;-58
2021/05/24 17:00:17;;;;;;;1.53;1.03;;;;;;;15.26;62.38;99585.97;10186039;28;20070;-57
2021/05/24 17:05:19;;;;;;;2.38;1.33;;;;;;;14.99;62.39;99587.19;10200070;28;20182;-55
2021/05/24 17:10:21;;;;;;;3.28;1.27;;;;;;;15.03;63.45;99608.13;10200488;28;20202;-58
2021/05/24 17:15:22;;;;;;;1.77;1.15;;;;;;;15.07;63.53;99613.97;10197828;28;20812;-56
2021/05/24 17:20:24;;;;;;;2.35;1.00;;;;;;;15.26;63.00;99587.84;10198763;28;20106;-56
2021/05/24 17:25:27;;;;;;;2.42;1.00;;;;;;;15.31;62.64;99590.81;10196867;28;20082;-55
2021/05/24 17:30:32;;;;;;;2.47;1.00;;;;;;;15.12;63.90;99582.16;10200193;28;20081;-60
2021/05/24 17:35:34;;;;;;;1.67;0.70;;;;;;;15.13;63.36;99567.75;10194068;28;20471;-56
2021/05/24 17:40:36;;;;;;;2.00;1.08;;;;;;;15.28;64.54;99569.72;10200573;28;20110;-59
2021/05/24 17:45:38;;;;;;;1.20;0.70;;;;;;;15.23;63.77;99572.91;10197512;28;20184;-58
2021/05/24 17:50:46;;;;;;;1.42;1.10;;;;;;;15.30;63.72;99579.28;10187125;28;20047;-57
2021/05/24 17:55:50;;;;;;;1.42;0.60;;;;;;;15.23;63.65;99577.44;10194963;28;20062;-57
2021/05/24 18:00:52;;;;;;;;;;;;;;;15.29;63.36;99580.28;10196621;28;20059;-59
2021/05/24 18:05:53;;;;;;;3.03;0.80;;;;;;;15.25;63.06;99567.38;10198769;28;19986;-60
2021/05/24 18:10:55;;;;;;;3.40;1.13;;;;;;;15.03;64.14;99583.16;10196972;28;20058;-63
2021/05/24 18:15:57;;;;;;;1.20;0.90;;;;;;;15.08;64.01;99567.41;10197578;28;20094;-62
2021/05/24 18:20:58;;;;;;;1.83;0.52;;;;;;;15.02;64.29;99578.81;10198448;28;20055;-63
2021/05/24 18:26:00;;;;;;;1.50;0.88;;;;;;;15.00;64.69;99583.50;10197251;28;20079;-64
2021/05/24 18:31:02;;;;;;;1.60;0.88;;;;;;;14.94;65.20;99593.06;10196144;28;20058;-66
2021/05/24 18:36:05;;;;;;;2.92;1.20;;;;;;;14.76;65.96;99587.84;10199679;28;20047;-60
2021/05/24 18:41:12;;;;;;;2.53;1.50;;;;;;;14.60;66.19;99593.16;10197072;28;20054;-63
2021/05/24 18:46:14;;;;;;;2.55;1.35;;;;;;;14.61;66.34;99609.09;10198050;28;20054;-59
2021/05/24 18:51:15;;;;;;;3.92;1.40;;;;;;;14.66;66.77;99603.25;10199894;28;20386;-65
2021/05/24 18:56:18;;;;;;;2.53;1.38;;;;;;;14.68;65.48;99601.22;10195467;28;20151;-58
2021/05/24 19:01:20;;;;;;;3.05;1.73;;;;;;;14.56;65.67;99595.34;10200449;28;20047;-58
2021/05/24 19:06:22;;;;;;;2.13;1.10;;;;;;;14.57;65.10;99604.22;10199097;28;21640;-58
2021/05/24 19:11:26;;;;;;;2.65;1.35;;;;;;;14.46;65.54;99616.09;10187466;28;20074;-59
2021/05/24 19:16:27;;;;;;;2.13;1.38;;;;;;;14.53;65.60;99613.56;10196780;28;21614;-62
2021/05/24 19:21:29;;;;;;;3.70;1.70;;;;;;;14.38;65.92;99624.09;10196899;28;20051;-58
2021/05/24 19:26:33;;;;;;;3.17;1.45;;;;;;;14.37;65.16;99625.94;10201288;28;20063;-59
2021/05/24 19:31:35;;;;;;;2.50;0.98;;;;;;;14.42;65.24;99623.59;10204206;28;20084;-59
2021/05/24 19:36:40;;;;;;;2.75;0.98;;;;;;;14.34;64.56;99620.91;10198985;28;20126;-59
2021/05/24 19:41:43;;;;;;;2.22;0.90;;;;;;;14.11;64.94;99609.94;10267626;23;20101;-55
2021/05/24 19:46:46;;;;;;;3.13;1.13;;;;;;;14.27;65.16;99646.66;10267164;28;20134;-54
2021/05/24 20:28:35;;;;;;;2.78;0.50;;;;;;;13.31;65.30;99688.53;10286110;28;20097;-58
2021/05/24 20:33:37;;;;;;;2.08;0.40;;;;;;;13.34;64.52;99672.22;10282799;28;20100;-59
2021/05/24 20:38:39;;;;;;;1.20;0.35;;;;;;;13.15;64.49;99669.69;10262192;28;20117;-58
2021/05/24 20:43:40;;;;;;;1.20;0.30;;;;;;;13.09;64.63;99681.88;10260360;28;20213;-53
2021/05/24 20:48:42;;;;;;;1.20;0.40;;;;;;;13.12;64.06;99672.69;10272228;28;20062;-56
2021/05/24 20:53:44;;;;;;;0.70;0.30;;;;;;;12.94;63.85;99617.47;10282595;28;20137;-56
2021/05/24 20:58:46;;;;;;;1.13;0.20;;;;;;;13.11;63.54;99641.63;10280271;28;20054;-60
2021/05/24 21:03:48;;;;;;;1.73;0.60;;;;;;;13.08;63.90;99646.28;10278217;28;20078;-58
2021/05/24 21:08:50;;;;;;;0.93;0.50;;;;;;;13.01;63.44;99663.91;10282593;28;20050;-54
2021/05/24 21:13:52;;;;;;;1.10;0.50;;;;;;;13.07;63.71;99689.19;10280334;28;20054;-56
2021/05/24 21:18:53;;;;;;;1.52;0.40;;;;;;;12.76;63.98;99672.69;10280640;28;20128;-56
2021/05/24 21:23:54;;;;;;;0.55;0.30;;;;;;;12.67;65.36;99688.66;10281244;28;20472;-59
2021/05/24 21:28:56;;;;;;;0.50;0.20;;;;;;;12.42;65.01;99700.03;10281944;28;20091;-54
2021/05/24 21:39:02;;;;;;;1.17;0.40;;;;;;;12.38;66.21;99719.03;10278650;28;20487;-53
2021/05/24 21:44:04;;;;;;;1.10;0.40;;;;;;;12.10;67.84;99719.97;10277406;28;20062;-55
2021/05/24 21:49:05;;;;;;;1.90;0.60;;;;;;;12.16;68.23;99700.69;10279074;28;20054;-53
2021/05/24 21:54:07;;;;;;;1.73;0.40;;;;;;;12.10;69.22;99714.63;10277915;28;20101;-56
2021/05/24 21:59:08;;;;;;;0.65;0.38;;;;;;;12.05;69.62;99727.59;10287117;28;20475;-59
2021/05/24 22:04:09;;;;;;;1.95;0.40;;;;;;;11.98;70.44;99721.97;10284874;28;20978;-58
2021/05/24 22:09:12;;;;;;;1.60;0.50;;;;;;;11.93;70.18;99714.41;10269346;28;20131;-58
2021/05/24 22:14:14;;;;;;;2.88;0.68;;;;;;;11.80;70.99;99693.38;10287657;28;20046;-60
2021/05/24 22:19:17;;;;;;;3.13;0.88;;;;;;;11.78;71.51;99700.66;10289797;28;20042;-58
2021/05/24 22:24:21;;;;;;;1.58;0.68;;;;;;;11.74;71.25;99735.78;10294809;28;20061;-54
2021/05/24 22:29:22;;;;;;;2.10;0.50;;;;;;;11.60;72.01;99721.91;10292412;28;20058;-59
2021/05/24 22:34:24;;;;;;;2.95;0.57;;;;;;;11.44;72.34;99708.31;10296128;28;20042;-56
2021/05/24 22:39:25;;;;;;;1.70;0.75;;;;;;;11.45;73.06;99726.00;10286188;28;20132;-57
2021/05/24 22:44:27;;;;;;;3.45;0.50;;;;;;;11.32;73.14;99721.81;10286510;28;20047;-58
2021/05/24 22:49:28;;;;;;;1.90;0.50;;;;;;;11.22;73.01;99720.97;10294590;28;20042;-56
2021/05/24 22:54:30;;;;;;;1.17;0.50;;;;;;;11.08;73.54;99727.56;10289640;28;21723;-54
2021/05/24 22:59:31;;;;;;;2.67;0.30;;;;;;;11.09;72.47;99729.25;10288780;28;20498;-55
2021/05/24 23:04:41;;;;;;;1.58;0.50;;;;;;;11.02;73.25;99732.59;10284335;28;20045;-55
2021/05/24 23:09:42;;;;;;;1.83;0.50;;;;;;;11.03;72.86;99742.28;10292985;28;20496;-58
2021/05/24 23:14:43;;;;;;;2.45;0.50;;;;;;;10.76;73.52;99743.78;10289084;28;20058;-58
2021/05/24 23:19:45;;;;;;;1.73;0.70;;;;;;;10.82;73.46;99772.50;10276750;28;20066;-53
2021/05/24 23:24:46;;;;;;;2.15;0.47;;;;;;;10.82;73.79;99772.50;10296325;28;20535;-53
2021/05/24 23:29:48;;;;;;;1.67;0.47;;;;;;;10.71;73.47;99764.66;10306159;28;20104;-53
2021/05/24 23:34:49;;;;;;;1.02;0.30;;;;;;;10.60;74.28;99785.06;10298095;28;20125;-55
2021/05/24 23:39:51;;;;;;;0.93;0.55;;;;;;;10.52;74.05;99771.59;10280667;28;20042;-52
2021/05/24 23:44:52;;;;;;;1.25;0.45;;;;;;;10.60;74.20;99797.56;10299955;28;20095;-55
2021/05/24 23:49:54;;;;;;;2.05;0.55;;;;;;;10.56;74.46;99802.28;10301109;28;20109;-54
2021/05/24 23:54:55;;;;;;;1.50;0.88;;;;;;;10.49;74.17;99793.16;10285155;28;20140;-57
2021/05/24 23:59:56;;;;;;;1.17;0.50;;;;;;;10.42;75.13;99803.50;10294471;28;20054;-53
